Airfield :
LOGIN :

Register | Disclaimer

   EN    FR    IT 

 










Legend :    VFR   Marginal VFR   IFR   Intensive IFR   Very Intensive IFR
Visi :
Ceiling :
>= 8 km
>= 3000ft
5 to 8 km
1000 to 3000 ft
1500m to 5 km
500 to 1000 ft
800 to 1500m
200 to 500 ft
< 800m
< 200 ft
Symbols :   Thunderstorms  Fog  Heavy snow  Heavy precipitations  Wind > 20 kt
SIGMETs :     Misc.  Thunderstorms  Icing  Turbulence  Mountain Waves  Volcanic Ashes







- Airport Elevation : 277 ft
- IATA code : JER
- Download approach charts


EGJJ - Jersey

CURRENT METAR :
  • 151220Z 15012KT 9999 FEW006 BKN008 15/14 Q1009

EXPIRED METARs :
  • 151150Z 16012KT 9999 FEW004 BKN005 15/14 Q1008
  • 151120Z 15013KT 9999 SCT004 BKN005 15/14 Q1008
  • 151050Z 16012KT 9999 SCT004 BKN005 15/14 Q1008
  • 151020Z 15014KT 9999 FEW003 BKN004 15/14 Q1008
  • 150950Z 15014KT 9999 SCT004 BKN005 15/14 Q1007

TAF TAF EGJJ
Valid from the 15 at 12:00 until the 15 at 21:00 UTC


151059Z 1512/1521 15008KT 9999 SCT005 BKN008
TEMPO 1512/1514 BKN005
PROB40
TEMPO 1513/1519 SCT012
ATIS : +44 1534 498 073
No reported NOTAMs for that airfield.



MET'MAP, your aeronautical weather chart ! - Copyright ORBIFLY December 2007 - Disclaimer

ORBIFLY MET'MAP TEAM :

Programming & Development : Alexandra Zaïnal
Concept & Development : Baudouin d'Aumeries
Co-Development & Prog : Marc-Olivier Méhu
Technical & hardware support : Manuel Goepfert

Contact : metmap@orbifly.com




SOURCES & CREDITS :

   NOAA